Time;durP1;ratioP1;P1;durP2;ratioP2;P2;SDS_P1;SDS_P2;PMS_P1;PMS_P2;Temp;Humidity;BMP_temperature;BMP_pressure;BME280_temperature;BME280_humidity;BME280_pressure;Samples;Min_cycle;Max_cycle;Signal;HPM_P1;HPM_P2
2022/01/23 00:00:20;;;;;;;26.55;10.45;;;7.60;99.90;;;;;;5053502;28;20016;-48
2022/01/23 00:02:47;;;;;;;21.52;9.23;;;7.60;99.90;;;;;;5053374;28;20032;-48
2022/01/23 00:05:14;;;;;;;20.88;10.05;;;7.60;99.90;;;;;;5053253;28;20025;-48
2022/01/23 00:07:41;;;;;;;20.63;9.77;;;7.60;99.90;;;;;;5053216;28;20028;-49
2022/01/23 00:10:10;;;;;;;24.52;11.20;;;7.60;99.90;;;;;;5035162;28;20025;-48
2022/01/23 00:12:43;;;;;;;25.63;10.70;;;7.70;99.90;;;;;;5053072;28;20045;-48
2022/01/23 00:17:53;;;;;;;26.05;11.98;;;7.50;99.90;;;;;;5053232;28;20044;-47
2022/01/23 00:20:19;;;;;;;41.55;15.23;;;7.50;99.90;;;;;;5053122;28;20029;-51
2022/01/23 00:22:48;;;;;;;21.35;9.48;;;7.40;99.90;;;;;;5035643;28;20088;-50
2022/01/23 00:30:45;;;;;;;44.70;13.68;;;7.20;99.90;;;;;;5053407;28;20060;-48
2022/01/23 00:33:12;;;;;;;30.50;11.40;;;7.20;99.90;;;;;;5053269;28;20049;-50
2022/01/23 00:35:39;;;;;;;32.20;12.00;;;7.30;99.90;;;;;;5052975;28;20056;-49
2022/01/23 00:38:07;;;;;;;29.98;13.40;;;7.30;99.90;;;;;;5053247;28;20017;-50
2022/01/23 00:40:35;;;;;;;26.80;10.90;;;7.40;99.90;;;;;;5036162;28;20052;-52
2022/01/23 00:43:06;;;;;;;26.00;11.60;;;7.30;99.90;;;;;;5052888;28;20033;-48
2022/01/23 00:45:34;;;;;;;23.35;8.93;;;7.40;99.90;;;;;;5036293;28;20186;-51
2022/01/23 00:48:05;;;;;;;32.72;12.18;;;7.40;99.90;;;;;;5034947;28;20496;-50
2022/01/23 00:50:36;;;;;;;23.63;10.35;;;7.50;99.90;;;;;;5053183;28;20021;-49
2022/01/23 00:53:04;;;;;;;36.42;12.63;;;7.50;99.90;;;;;;5053108;28;20033;-48
2022/01/23 00:55:30;;;;;;;33.95;12.10;;;7.50;99.90;;;;;;5053100;28;20025;-57
2022/01/23 00:57:55;;;;;;;38.53;12.30;;;7.50;99.90;;;;;;5053559;28;20017;-50
2022/01/23 01:00:22;;;;;;;36.55;14.85;;;7.40;99.90;;;;;;5053168;28;20108;-52
2022/01/23 01:03:10;;;;;;;35.15;13.18;;;7.40;99.90;;;;;;5053560;28;20029;-50
2022/01/23 01:05:35;;;;;;;31.73;13.07;;;7.40;99.90;;;;;;5053199;28;20108;-51
2022/01/23 01:08:03;;;;;;;35.10;13.02;;;7.30;99.90;;;;;;5035057;28;20445;-55
2022/01/23 01:10:39;;;;;;;36.97;14.32;;;7.30;99.90;;;;;;5053283;28;20033;-52
2022/01/23 01:13:06;;;;;;;28.02;11.98;;;7.30;99.90;;;;;;5053161;28;20060;-50
2022/01/23 01:31:50;;;;;;;32.90;12.30;;;7.20;99.90;;;;;;5056365;28;20051;-47
2022/01/23 01:34:23;;;;;;;34.58;13.25;;;7.20;99.90;;;;;;5056429;28;20028;-50
2022/01/23 01:36:51;;;;;;;28.25;12.68;;;7.10;99.90;;;;;;5056009;28;20017;-48
2022/01/23 01:39:20;;;;;;;24.13;10.82;;;7.20;99.90;;;;;;5038068;28;20021;-48
2022/01/23 01:41:46;;;;;;;29.33;12.45;;;7.20;99.90;;;;;;5038096;28;20055;-49
2022/01/23 01:44:12;;;;;;;26.15;11.38;;;7.20;99.90;;;;;;5055769;28;20474;-52
2022/01/23 01:46:38;;;;;;;24.73;10.98;;;7.20;99.90;;;;;;5038142;28;20120;-50
2022/01/23 01:49:04;;;;;;;38.70;13.18;;;7.30;99.90;;;;;;5056101;28;20071;-48
2022/01/23 01:51:32;;;;;;;28.85;12.25;;;7.30;99.90;;;;;;5055902;28;20393;-52
2022/01/23 01:54:05;;;;;;;29.75;12.50;;;7.30;99.90;;;;;;5055748;28;20096;-51
2022/01/23 01:56:39;;;;;;;29.58;12.38;;;7.30;99.90;;;;;;5037703;28;20024;-49
2022/01/23 02:55:20;;;;;;;33.58;14.57;;;7.40;99.90;;;;;;5055059;28;20021;-49
2022/01/23 03:00:15;;;;;;;34.60;14.32;;;7.40;99.90;;;;;;5054703;28;20032;-51
2022/01/23 03:02:48;;;;;;;35.05;13.90;;;7.40;99.90;;;;;;5037352;28;20021;-48
2022/01/23 03:05:35;;;;;;;30.02;13.52;;;7.30;99.90;;;;;;5036532;28;20107;-50
2022/01/23 03:10:32;;;;;;;36.90;14.43;;;7.20;99.90;;;;;;5054397;28;20021;-50
2022/01/23 03:26:19;;;;;;;33.92;14.55;;;7.10;99.90;;;;;;5053892;28;20036;-50
2022/01/23 03:31:33;;;;;;;30.48;13.43;;;7.10;99.90;;;;;;5054142;28;20033;-48
2022/01/23 03:33:59;;;;;;;33.30;13.25;;;7.20;99.90;;;;;;5035912;28;20048;-50
2022/01/23 03:36:25;;;;;;;29.92;13.43;;;7.20;99.90;;;;;;5036188;28;20500;-53
2022/01/23 03:38:51;;;;;;;34.85;13.98;;;7.20;99.90;;;;;;5036925;28;20021;-48
2022/01/23 03:41:17;;;;;;;36.20;14.23;;;7.20;99.90;;;;;;5035914;28;20021;-47
2022/01/23 03:43:43;;;;;;;32.75;13.95;;;7.20;99.90;;;;;;5036072;28;20025;-48
2022/01/23 03:46:35;;;;;;;31.38;13.50;;;7.20;99.90;;;;;;5053436;28;20031;-50
2022/01/23 03:51:45;;;;;;;34.22;13.80;;;7.20;99.90;;;;;;5053531;28;20179;-48
2022/01/23 03:54:11;;;;;;;35.22;15.27;;;7.20;99.90;;;;;;5053402;28;20520;-47
2022/01/23 03:56:36;;;;;;;30.27;13.57;;;7.10;99.90;;;;;;5035893;28;20025;-48
2022/01/23 03:59:02;;;;;;;34.90;12.50;;;7.10;99.90;;;;;;5035812;28;20075;-51
2022/01/23 04:01:28;;;;;;;37.15;13.85;;;7.20;99.90;;;;;;5035492;28;20119;-50
2022/01/23 04:03:56;;;;;;;35.72;14.57;;;7.20;99.90;;;;;;5053264;28;20036;-48
2022/01/23 04:06:23;;;;;;;31.50;13.10;;;7.10;99.90;;;;;;5053172;28;20477;-47
2022/01/23 04:08:49;;;;;;;34.55;13.98;;;7.00;99.90;;;;;;5035443;28;20112;-49
2022/01/23 04:11:16;;;;;;;27.25;12.15;;;7.00;99.90;;;;;;5035411;28;20027;-47
2022/01/23 04:14:03;;;;;;;24.63;11.23;;;7.10;99.90;;;;;;5035229;28;20108;-49
2022/01/23 04:19:35;;;;;;;26.45;11.02;;;7.20;99.90;;;;;;5053484;28;20398;-48
2022/01/23 04:33:14;;;;;;;18.83;9.50;;;7.30;99.90;;;;;;5053624;28;20492;-52
2022/01/23 05:00:22;;;;;;;28.88;10.80;;;7.00;99.90;;;;;;5057015;28;20039;-49
2022/01/23 05:05:27;;;;;;;31.20;11.27;;;7.10;99.90;;;;;;5056943;28;20056;-49
2022/01/23 05:07:55;;;;;;;24.27;10.32;;;7.00;99.90;;;;;;5056531;28;20071;-50
2022/01/23 05:10:20;;;;;;;24.98;10.90;;;7.00;99.90;;;;;;5038551;28;20037;-48
2022/01/23 05:12:46;;;;;;;21.20;9.13;;;7.10;99.90;;;;;;5056509;28;20090;-48
2022/01/23 05:15:12;;;;;;;19.30;8.52;;;7.00;99.90;;;;;;5056457;28;20025;-48
2022/01/23 05:17:38;;;;;;;26.85;10.60;;;7.00;99.90;;;;;;5038328;28;20052;-51
2022/01/23 05:20:05;;;;;;;22.27;9.90;;;7.00;99.90;;;;;;5056595;28;20025;-50
2022/01/23 05:22:43;;;;;;;20.98;9.95;;;7.10;99.90;;;;;;5056238;28;20021;-51
2022/01/23 05:27:34;;;;;;;26.08;10.20;;;7.10;99.90;;;;;;5056513;28;20021;-49
2022/01/23 05:30:01;;;;;;;24.65;9.73;;;7.10;99.90;;;;;;5056136;28;20028;-50
2022/01/23 05:32:33;;;;;;;24.38;10.10;;;7.10;99.90;;;;;;5056093;28;20020;-48
2022/01/23 05:34:58;;;;;;;18.63;9.25;;;7.00;99.90;;;;;;5038262;28;20051;-49
2022/01/23 05:37:24;;;;;;;18.75;9.30;;;7.00;99.90;;;;;;5038091;28;20025;-48
2022/01/23 05:39:49;;;;;;;26.10;9.60;;;7.00;99.90;;;;;;5055927;28;20097;-52
2022/01/23 05:42:15;;;;;;;22.40;9.27;;;7.00;99.90;;;;;;5056173;28;20424;-49
2022/01/23 05:44:42;;;;;;;21.08;8.77;;;7.10;99.90;;;;;;5055795;28;20105;-52
2022/01/23 05:47:10;;;;;;;21.27;8.60;;;7.10;99.90;;;;;;5037898;28;20025;-51
2022/01/23 05:49:36;;;;;;;23.77;10.40;;;7.10;99.90;;;;;;5037880;28;20048;-48
2022/01/23 05:52:03;;;;;;;21.13;9.40;;;7.10;99.90;;;;;;5038164;28;20029;-51
2022/01/23 05:54:29;;;;;;;22.90;10.20;;;7.10;99.90;;;;;;5038675;28;20080;-50
2022/01/23 05:56:54;;;;;;;23.27;9.73;;;7.10;99.90;;;;;;5037647;28;20474;-54
2022/01/23 05:59:21;;;;;;;25.70;10.60;;;7.10;99.90;;;;;;5037786;28;20031;-51
2022/01/23 06:01:51;;;;;;;20.85;9.35;;;7.10;99.90;;;;;;5038051;28;20378;-52
2022/01/23 06:04:18;;;;;;;22.65;9.35;;;7.10;99.90;;;;;;5037675;28;20032;-48
2022/01/23 06:06:45;;;;;;;22.75;10.52;;;7.00;99.90;;;;;;5037817;28;20078;-48
2022/01/23 06:09:10;;;;;;;26.50;10.77;;;6.90;99.90;;;;;;5054098;28;20025;-47
2022/01/23 06:11:36;;;;;;;24.33;10.30;;;6.90;99.90;;;;;;5055571;28;20028;-48
2022/01/23 06:14:02;;;;;;;25.60;10.50;;;6.90;99.90;;;;;;5055227;28;20028;-47
2022/01/23 06:16:28;;;;;;;22.10;10.18;;;6.90;99.90;;;;;;5055172;28;20032;-48
2022/01/23 06:18:53;;;;;;;25.20;11.10;;;7.00;99.90;;;;;;5037660;28;20021;-48
2022/01/23 06:21:20;;;;;;;25.08;11.20;;;7.00;99.90;;;;;;5037698;28;20029;-52
2022/01/23 06:23:48;;;;;;;26.83;10.77;;;7.00;99.90;;;;;;5037643;28;20031;-47
2022/01/23 06:26:16;;;;;;;22.35;10.35;;;7.00;99.90;;;;;;5037348;28;20029;-49
2022/01/23 06:28:49;;;;;;;28.13;11.63;;;7.00;99.90;;;;;;5037184;28;20094;-50
2022/01/23 06:31:15;;;;;;;23.50;10.23;;;7.00;99.90;;;;;;5037050;28;20120;-49
2022/01/23 06:33:40;;;;;;;22.48;9.77;;;7.00;99.90;;;;;;5037222;28;20056;-51
2022/01/23 06:36:06;;;;;;;23.08;10.25;;;7.00;99.90;;;;;;5055088;28;20029;-51
2022/01/23 06:38:32;;;;;;;25.27;10.93;;;6.90;99.90;;;;;;5054888;28;20052;-49
2022/01/23 06:40:57;;;;;;;23.02;10.27;;;6.90;99.90;;;;;;5037045;28;20096;-49
2022/01/23 06:43:23;;;;;;;31.73;12.48;;;6.90;99.90;;;;;;5054821;28;20079;-51
2022/01/23 06:45:48;;;;;;;27.20;11.75;;;6.90;99.90;;;;;;5054636;28;20067;-48
2022/01/23 06:48:14;;;;;;;25.80;11.15;;;6.90;99.90;;;;;;5037391;28;20025;-51
2022/01/23 06:50:40;;;;;;;20.13;10.35;;;6.90;99.90;;;;;;5037524;28;20024;-47
2022/01/23 06:53:06;;;;;;;28.73;11.13;;;6.90;99.90;;;;;;5054915;28;20029;-49
2022/01/23 06:55:31;;;;;;;27.38;10.68;;;6.90;99.90;;;;;;5054544;28;20024;-48
2022/01/23 06:57:57;;;;;;;25.65;10.73;;;6.80;99.90;;;;;;5036701;28;20024;-49
2022/01/23 07:00:22;;;;;;;23.98;10.50;;;6.80;99.90;;;;;;5037785;28;20116;-49
2022/01/23 07:02:48;;;;;;;30.60;11.55;;;6.80;99.90;;;;;;5037399;28;20025;-49
2022/01/23 07:05:14;;;;;;;31.73;12.07;;;6.70;99.90;;;;;;5054258;28;20024;-48
2022/01/23 07:07:39;;;;;;;30.27;10.88;;;6.80;99.90;;;;;;5036520;28;20025;-50
2022/01/23 07:10:05;;;;;;;26.63;10.32;;;6.80;99.90;;;;;;5054453;28;20021;-47
2022/01/23 07:12:31;;;;;;;27.52;11.23;;;6.80;99.90;;;;;;5054051;28;20044;-51
2022/01/23 07:14:56;;;;;;;25.33;9.82;;;6.90;99.90;;;;;;5036294;28;20064;-53
2022/01/23 07:17:22;;;;;;;24.80;10.10;;;6.80;99.90;;;;;;5036033;28;20033;-49
2022/01/23 07:19:48;;;;;;;24.73;10.93;;;6.80;99.90;;;;;;5053725;28;20017;-48
2022/01/23 07:22:13;;;;;;;27.58;10.75;;;6.80;99.90;;;;;;5036145;28;20028;-53
2022/01/23 07:24:39;;;;;;;29.52;11.35;;;6.80;99.90;;;;;;5036164;28;20025;-50
2022/01/23 07:27:18;;;;;;;25.45;10.30;;;6.80;99.90;;;;;;5036376;28;20052;-47
2022/01/23 07:29:45;;;;;;;27.33;10.30;;;6.80;99.90;;;;;;5036982;28;20056;-47
2022/01/23 07:32:11;;;;;;;27.67;11.35;;;6.80;99.90;;;;;;5053780;28;20119;-50
2022/01/23 07:34:37;;;;;;;34.83;14.98;;;6.80;99.90;;;;;;5036178;28;20060;-47
2022/01/23 07:37:02;;;;;;;33.20;11.80;;;6.80;99.90;;;;;;5053927;28;20036;-48
2022/01/23 07:39:28;;;;;;;28.63;11.73;;;6.80;99.90;;;;;;5053628;28;20123;-48
2022/01/23 07:41:54;;;;;;;23.42;9.63;;;6.80;99.90;;;;;;5053924;28;20060;-49
2022/01/23 07:44:20;;;;;;;34.58;12.00;;;6.90;99.90;;;;;;5035781;28;20025;-52
2022/01/23 07:46:45;;;;;;;27.83;11.77;;;6.90;99.90;;;;;;5035682;28;20029;-50
2022/01/23 07:49:11;;;;;;;28.10;10.52;;;6.80;99.90;;;;;;5036762;28;20111;-52
2022/01/23 07:51:37;;;;;;;27.98;10.63;;;6.90;99.90;;;;;;5053479;28;20131;-49
2022/01/23 07:54:05;;;;;;;29.45;11.93;;;6.90;99.90;;;;;;5035927;28;20024;-48
2022/01/23 07:56:30;;;;;;;34.00;10.73;;;6.90;99.90;;;;;;5053365;28;20020;-49
2022/01/23 07:58:56;;;;;;;25.27;10.23;;;7.00;99.90;;;;;;5053447;28;20095;-49
2022/01/23 08:01:22;;;;;;;22.88;10.00;;;7.00;99.90;;;;;;5053418;28;20028;-48
2022/01/23 08:03:47;;;;;;;26.30;10.50;;;7.10;99.90;;;;;;5035514;28;20477;-48
2022/01/23 08:06:13;;;;;;;28.40;11.70;;;7.10;99.90;;;;;;5035627;28;20037;-49
2022/01/23 08:08:39;;;;;;;24.50;9.98;;;7.10;99.90;;;;;;5054052;28;20032;-49
2022/01/23 08:11:06;;;;;;;27.92;9.75;;;7.20;99.90;;;;;;5035627;28;20048;-49
2022/01/23 08:13:32;;;;;;;23.02;10.43;;;7.20;99.90;;;;;;5035857;28;20111;-50
2022/01/23 08:15:57;;;;;;;23.85;9.13;;;7.20;99.90;;;;;;5036056;28;20036;-51
2022/01/23 08:18:23;;;;;;;20.83;8.80;;;7.20;99.90;;;;;;5035892;28;20071;-49
2022/01/23 08:20:49;;;;;;;25.05;9.02;;;7.40;99.90;;;;;;5053567;28;20059;-52
2022/01/23 08:23:14;;;;;;;24.95;9.73;;;7.40;99.90;;;;;;5036011;28;20025;-51
2022/01/23 08:25:40;;;;;;;20.52;7.97;;;7.50;99.90;;;;;;5035470;28;20032;-50
2022/01/23 08:28:07;;;;;;;25.27;10.05;;;7.50;99.90;;;;;;5053235;28;20158;-52
2022/01/23 08:30:33;;;;;;;24.63;9.90;;;7.60;99.90;;;;;;5035096;28;20025;-52
2022/01/23 08:32:59;;;;;;;24.95;10.73;;;7.70;99.90;;;;;;5055152;28;20021;-53
2022/01/23 08:35:26;;;;;;;20.80;9.35;;;7.80;99.90;;;;;;5039163;28;20017;-54
2022/01/23 08:37:52;;;;;;;21.77;9.23;;;8.00;99.90;;;;;;5039254;28;20477;-55
2022/01/23 08:40:23;;;;;;;22.38;8.70;;;8.10;99.90;;;;;;5039932;28;20031;-51
2022/01/23 08:42:52;;;;;;;20.65;8.90;;;8.20;99.90;;;;;;5057601;28;20067;-54
2022/01/23 08:45:19;;;;;;;17.70;7.90;;;8.10;99.90;;;;;;5039508;28;20067;-51
2022/01/23 08:47:44;;;;;;;18.75;8.68;;;8.30;99.90;;;;;;5039451;28;20060;-51
2022/01/23 08:50:10;;;;;;;19.90;8.32;;;8.30;99.90;;;;;;5039518;28;20025;-55
2022/01/23 08:52:36;;;;;;;24.63;10.05;;;8.50;99.90;;;;;;5057522;28;20393;-54
2022/01/23 08:55:02;;;;;;;20.15;9.50;;;8.60;99.90;;;;;;5039571;28;20029;-53
2022/01/23 08:57:27;;;;;;;21.42;9.63;;;8.80;99.90;;;;;;5039263;28;20536;-56
2022/01/23 08:59:53;;;;;;;17.38;7.93;;;8.90;99.90;;;;;;5057399;28;20025;-55
2022/01/23 09:02:19;;;;;;;18.45;8.25;;;9.00;99.90;;;;;;5039479;28;20033;-54
2022/01/23 09:04:45;;;;;;;17.95;7.70;;;9.20;99.90;;;;;;5039317;28;20025;-55
2022/01/23 09:07:12;;;;;;;15.48;7.72;;;9.20;99.90;;;;;;5039150;28;20033;-55
2022/01/23 09:09:39;;;;;;;20.25;8.98;;;9.20;99.90;;;;;;5039550;28;20416;-50
2022/01/23 09:12:10;;;;;;;20.30;9.05;;;9.30;99.90;;;;;;5039090;28;20051;-51
2022/01/23 09:14:36;;;;;;;18.38;8.98;;;9.30;99.90;;;;;;5039567;28;20027;-53
2022/01/23 09:17:04;;;;;;;30.30;13.45;;;9.30;99.90;;;;;;5039025;28;20036;-53
2022/01/23 09:19:30;;;;;;;20.75;10.25;;;9.20;99.90;;;;;;5057419;28;20025;-55
2022/01/23 09:21:59;;;;;;;19.92;9.63;;;9.30;99.90;;;;;;5039454;28;20043;-56
2022/01/23 09:24:26;;;;;;;19.13;7.97;;;9.30;99.90;;;;;;5038894;28;20132;-51
2022/01/23 09:26:55;;;;;;;19.30;8.60;;;9.20;99.90;;;;;;5038825;28;20028;-49
2022/01/23 09:29:40;;;;;;;17.85;8.15;;;9.20;99.90;;;;;;5038793;28;20025;-53
2022/01/23 09:32:11;;;;;;;19.70;8.90;;;9.10;99.90;;;;;;5057035;28;20025;-52
2022/01/23 09:34:37;;;;;;;19.13;8.88;;;9.20;99.90;;;;;;5056495;28;20061;-52
2022/01/23 09:37:05;;;;;;;21.85;10.45;;;9.20;99.90;;;;;;5056632;28;20088;-54
2022/01/23 09:39:31;;;;;;;18.35;9.38;;;9.20;99.90;;;;;;5056354;28;20028;-52
2022/01/23 09:42:04;;;;;;;15.98;7.53;;;9.30;99.90;;;;;;5056617;28;20032;-56
2022/01/23 09:45:22;;;;;;;17.05;8.30;;;9.40;99.90;;;;;;5039090;28;20052;-52
2022/01/23 09:47:47;;;;;;;20.05;7.75;;;9.40;99.90;;;;;;5038500;28;20555;-55
2022/01/23 09:50:15;;;;;;;21.58;9.73;;;9.40;99.90;;;;;;5038358;28;20025;-50
2022/01/23 09:52:41;;;;;;;17.25;8.45;;;9.50;99.90;;;;;;5038427;28;20021;-53
2022/01/23 09:55:11;;;;;;;18.40;9.32;;;9.50;99.90;;;;;;5038714;28;20032;-51
2022/01/23 09:57:38;;;;;;;12.60;7.10;;;9.60;99.90;;;;;;5056726;28;20103;-50
2022/01/23 10:00:08;;;;;;;14.73;7.45;;;9.70;99.90;;;;;;5038154;28;20082;-53
2022/01/23 10:02:34;;;;;;;14.38;6.97;;;9.50;99.90;;;;;;5056153;28;20021;-51
2022/01/23 10:05:00;;;;;;;16.52;7.35;;;9.70;99.90;;;;;;5056360;28;20362;-51
2022/01/23 10:07:27;;;;;;;12.63;5.50;;;9.80;99.90;;;;;;5038337;28;20021;-52
2022/01/23 10:09:56;;;;;;;12.60;6.00;;;9.90;99.90;;;;;;5038977;28;20027;-54
2022/01/23 10:12:26;;;;;;;12.10;5.97;;;9.90;99.90;;;;;;5055984;28;20071;-50
2022/01/23 10:14:56;;;;;;;12.35;5.88;;;9.90;99.90;;;;;;5038309;28;20052;-54
2022/01/23 10:17:22;;;;;;;12.82;6.38;;;9.90;99.90;;;;;;5055748;28;20500;-55
2022/01/23 10:19:48;;;;;;;13.02;6.15;;;10.00;99.90;;;;;;5038374;28;20025;-56
2022/01/23 10:22:15;;;;;;;14.05;6.70;;;10.10;99.90;;;;;;5055923;28;20048;-54
2022/01/23 10:24:41;;;;;;;11.57;6.18;;;10.00;99.90;;;;;;5056028;28;20044;-52
2022/01/23 10:27:07;;;;;;;12.95;6.20;;;10.10;99.90;;;;;;5038119;28;20029;-50
2022/01/23 10:29:37;;;;;;;12.32;6.18;;;10.00;99.90;;;;;;5038689;28;20017;-55
2022/01/23 10:32:14;;;;;;;11.82;6.10;;;10.10;99.90;;;;;;5055831;28;20052;-54
2022/01/23 10:34:52;;;;;;;13.93;7.10;;;10.30;99.90;;;;;;5038568;28;20025;-54
2022/01/23 10:37:24;;;;;;;12.00;5.68;;;10.20;99.90;;;;;;5055785;28;20036;-52
2022/01/23 10:39:49;;;;;;;;;;;10.00;99.90;;;;;;5038506;28;20021;-52
2022/01/23 10:47:53;;;;;;;9.40;3.85;;;9.90;99.90;;;;;;5055538;28;20097;-50
2022/01/23 10:50:22;;;;;;;7.45;4.28;;;9.80;99.90;;;;;;5037507;28;20031;-54
2022/01/23 10:52:49;;;;;;;7.40;3.35;;;9.80;99.90;;;;;;5055224;28;20025;-50
2022/01/23 10:55:20;;;;;;;5.78;3.35;;;9.90;99.90;;;;;;5055101;28;20021;-50
2022/01/23 10:57:51;;;;;;;10.48;3.83;;;10.10;99.90;;;;;;5037380;28;20021;-50
2022/01/23 11:00:31;;;;;;;8.88;4.18;;;10.00;99.90;;;;;;5055360;28;20025;-51
2022/01/23 11:02:59;;;;;;;6.93;3.63;;;10.10;99.90;;;;;;5037355;28;20060;-51
2022/01/23 11:05:33;;;;;;;5.78;3.53;;;10.20;99.90;;;;;;5037407;28;20021;-50
2022/01/23 11:07:59;;;;;;;7.40;3.90;;;10.20;99.90;;;;;;5037536;28;20036;-56
2022/01/23 11:10:25;;;;;;;8.70;4.40;;;10.20;99.90;;;;;;5054861;28;20021;-53
2022/01/23 11:18:11;;;;;;;8.63;4.57;;;10.50;99.90;;;;;;5055557;28;20036;-53
2022/01/23 11:20:45;;;;;;;10.85;4.72;;;10.50;99.90;;;;;;5037457;28;20167;-52
2022/01/23 11:23:14;;;;;;;7.68;4.28;;;10.70;99.90;;;;;;5037415;28;20478;-54
2022/01/23 11:26:02;;;;;;;4.53;2.83;;;10.80;99.90;;;;;;5055290;28;20025;-55
2022/01/23 11:28:55;;;;;;;6.20;2.75;;;10.50;99.90;;;;;;5048870;28;20045;-53
2022/01/23 11:31:23;;;;;;;6.85;3.28;;;10.00;99.90;;;;;;5036171;28;20033;-54
2022/01/23 11:33:50;;;;;;;4.93;2.17;;;10.10;99.90;;;;;;5036552;28;20397;-51
2022/01/23 11:36:18;;;;;;;3.90;2.20;;;9.90;99.90;;;;;;5053845;28;20389;-55
2022/01/23 11:38:45;;;;;;;5.30;2.10;;;9.80;99.90;;;;;;5036988;28;20017;-52
2022/01/23 11:55:36;;;;;;;3.47;2.40;;;10.10;99.90;;;;;;4982327;28;20030;-51
2022/01/23 11:58:03;;;;;;;3.75;2.25;;;10.40;99.90;;;;;;5053455;28;20116;-51
2022/01/23 12:00:32;;;;;;;4.63;2.20;;;10.40;99.90;;;;;;5035559;28;20499;-50
2022/01/23 12:03:10;;;;;;;4.82;2.30;;;10.50;99.90;;;;;;5053360;28;20048;-55
2022/01/23 12:05:39;;;;;;;2.42;1.48;;;10.60;99.90;;;;;;5053383;28;20027;-52
2022/01/23 12:08:30;;;;;;;4.55;1.88;;;10.30;99.90;;;;;;5053180;28;20024;-53
2022/01/23 12:16:58;;;;;;;6.40;2.38;;;10.30;99.90;;;;;;5053210;28;20033;-52
2022/01/23 12:19:26;;;;;;;4.97;2.28;;;10.50;99.90;;;;;;5035332;28;20032;-53
2022/01/23 12:21:53;;;;;;;6.40;2.20;;;10.50;99.90;;;;;;5035217;28;20060;-52
2022/01/23 12:24:22;;;;;;;3.67;1.83;;;10.60;99.90;;;;;;5035326;28;20032;-53
2022/01/23 12:26:49;;;;;;;3.25;1.80;;;10.50;99.90;;;;;;5035245;28;20491;-52
2022/01/23 12:29:23;;;;;;;3.42;1.30;;;10.30;99.90;;;;;;5036096;28;20029;-53
2022/01/23 12:32:09;;;;;;;1.83;1.00;;;10.20;99.90;;;;;;5035220;28;20025;-54
2022/01/23 12:35:06;;;;;;;2.25;1.88;;;10.00;99.90;;;;;;5053469;28;20029;-49
2022/01/23 12:37:58;;;;;;;8.20;3.15;;;9.70;99.90;;;;;;5035228;28;20072;-48
2022/01/23 12:40:33;;;;;;;3.92;2.03;;;9.90;99.90;;;;;;5035152;28;20024;-49
2022/01/23 12:43:17;;;;;;;2.92;1.75;;;9.80;99.90;;;;;;5035099;28;20025;-50
2022/01/23 12:45:46;;;;;;;2.53;1.40;;;10.00;99.90;;;;;;5035182;28;20496;-50
2022/01/23 12:48:30;;;;;;;1.70;1.20;;;9.90;99.90;;;;;;5035335;28;20052;-48
2022/01/23 12:51:02;;;;;;;2.47;1.38;;;9.80;99.90;;;;;;5052823;28;20109;-49
2022/01/23 12:53:57;;;;;;;1.88;1.02;;;9.40;99.90;;;;;;5035055;28;20033;-53
2022/01/23 12:56:30;;;;;;;2.28;1.08;;;9.40;99.90;;;;;;5034645;28;20025;-49
2022/01/23 12:59:04;;;;;;;0.75;0.70;;;9.00;99.90;;;;;;5034980;28;20021;-49
2022/01/23 13:01:30;;;;;;;2.03;1.00;;;9.00;99.90;;;;;;5052773;28;20033;-50
2022/01/23 13:03:58;;;;;;;3.97;1.08;;;9.00;99.90;;;;;;5053028;28;20025;-50
2022/01/23 13:06:51;;;;;;;4.05;1.33;;;9.20;99.90;;;;;;5034776;28;20120;-48
2022/01/23 13:09:37;;;;;;;3.58;1.30;;;9.50;99.90;;;;;;5052552;28;20017;-48
2022/01/23 13:32:09;;;;;;;3.42;1.30;;;9.30;99.90;;;;;;5056587;28;20158;-51
2022/01/23 13:34:48;;;;;;;1.45;1.00;;;9.00;99.90;;;;;;5056465;28;20028;-50
2022/01/23 13:37:20;;;;;;;3.05;1.65;;;8.80;99.90;;;;;;5056230;28;20025;-49
2022/01/23 13:39:58;;;;;;;5.78;2.17;;;8.70;99.90;;;;;;5038958;28;20028;-51
2022/01/23 14:02:43;;;;;;;4.07;2.22;;;8.40;99.90;;;;;;5055994;28;20084;-49
2022/01/23 14:05:17;;;;;;;3.05;1.48;;;8.40;99.90;;;;;;5055645;28;20038;-53
2022/01/23 14:07:56;;;;;;;2.38;1.33;;;8.30;99.90;;;;;;5055523;28;20029;-54
2022/01/23 14:10:43;;;;;;;1.10;0.80;;;8.30;99.90;;;;;;5038609;28;20107;-53
2022/01/23 14:13:16;;;;;;;1.27;0.88;;;8.30;99.90;;;;;;5037776;28;20079;-51
2022/01/23 14:15:44;;;;;;;1.50;1.23;;;8.40;99.90;;;;;;5037867;28;20166;-52
2022/01/23 14:18:12;;;;;;;2.42;1.17;;;8.50;99.90;;;;;;5037817;28;20060;-52
2022/01/23 14:20:41;;;;;;;1.38;1.10;;;8.50;99.90;;;;;;5055286;28;20366;-49
2022/01/23 14:23:16;;;;;;;2.22;1.45;;;8.30;99.90;;;;;;5055521;28;20021;-52
2022/01/23 14:25:59;;;;;;;2.33;1.38;;;8.20;99.90;;;;;;5055146;28;20027;-53
2022/01/23 14:28:37;;;;;;;1.55;0.93;;;8.20;99.90;;;;;;5037293;28;20115;-49
2022/01/23 14:31:14;;;;;;;1.15;1.05;;;8.10;99.90;;;;;;5053906;28;20036;-52
2022/01/23 14:33:40;;;;;;;2.60;1.20;;;8.00;99.90;;;;;;5037108;28;20473;-53
2022/01/23 14:36:23;;;;;;;3.08;1.45;;;7.90;99.90;;;;;;5037017;28;20032;-50
2022/01/23 14:39:06;;;;;;;3.22;1.35;;;7.90;99.90;;;;;;5055182;28;20014;-50
2022/01/23 14:41:41;;;;;;;2.22;1.15;;;7.80;99.90;;;;;;5037546;28;20029;-54
2022/01/23 14:44:18;;;;;;;2.70;1.45;;;7.80;99.90;;;;;;5036891;28;20456;-50
2022/01/23 14:46:46;;;;;;;2.47;1.70;;;7.90;99.90;;;;;;5036882;28;20029;-51
2022/01/23 14:49:21;;;;;;;3.78;1.70;;;7.90;99.90;;;;;;5036790;28;20090;-51
2022/01/23 14:51:47;;;;;;;4.65;2.38;;;7.90;99.90;;;;;;5036622;28;20112;-51
2022/01/23 14:54:12;;;;;;;4.75;2.13;;;7.80;99.90;;;;;;5054943;28;20425;-49
2022/01/23 14:56:39;;;;;;;4.40;2.53;;;7.80;99.90;;;;;;5054721;28;20032;-52
2022/01/23 14:59:09;;;;;;;4.35;2.60;;;7.90;99.90;;;;;;5036983;28;20024;-49
2022/01/23 15:01:36;;;;;;;3.15;1.45;;;7.90;99.90;;;;;;5054727;28;20044;-48
2022/01/23 15:04:06;;;;;;;1.90;1.15;;;7.80;99.90;;;;;;5054335;28;20374;-49
2022/01/23 15:06:32;;;;;;;5.97;1.60;;;7.80;99.90;;;;;;5037109;28;20056;-50
2022/01/23 15:09:06;;;;;;;4.22;1.63;;;7.80;99.90;;;;;;5054579;28;20049;-50
2022/01/23 15:11:33;;;;;;;3.58;1.55;;;7.80;99.90;;;;;;5036204;28;20037;-50
2022/01/23 15:13:59;;;;;;;2.92;1.75;;;7.80;99.90;;;;;;5054508;28;20017;-52
2022/01/23 15:16:25;;;;;;;3.17;1.55;;;7.80;99.90;;;;;;5036282;28;20024;-49
2022/01/23 15:18:50;;;;;;;2.97;1.60;;;7.80;99.90;;;;;;5037099;28;20117;-52
2022/01/23 15:21:16;;;;;;;7.18;2.85;;;7.80;99.90;;;;;;5054076;28;20029;-49
2022/01/23 15:23:42;;;;;;;16.02;6.43;;;7.90;99.90;;;;;;5054120;28;20396;-48
2022/01/23 15:26:08;;;;;;;18.30;6.43;;;7.90;99.90;;;;;;5036128;28;20119;-47
2022/01/23 15:28:33;;;;;;;10.55;4.22;;;7.80;99.90;;;;;;5036175;28;20100;-47
2022/01/23 15:30:59;;;;;;;4.57;2.70;;;7.90;99.90;;;;;;5036054;28;20116;-48
2022/01/23 15:33:25;;;;;;;10.48;4.10;;;7.80;99.90;;;;;;5036826;28;20021;-51
2022/01/23 15:35:51;;;;;;;10.02;2.70;;;7.80;99.90;;;;;;5053717;28;20104;-49
2022/01/23 15:38:21;;;;;;;7.95;2.13;;;7.90;99.90;;;;;;5036475;28;20025;-48
2022/01/23 15:40:47;;;;;;;7.50;2.63;;;7.80;99.90;;;;;;5036555;28;20033;-50
2022/01/23 15:43:14;;;;;;;3.88;1.75;;;7.80;99.90;;;;;;5035879;28;20036;-48
2022/01/23 15:45:42;;;;;;;5.13;2.55;;;7.80;99.90;;;;;;5053774;28;20031;-47
2022/01/23 15:48:08;;;;;;;4.63;1.60;;;7.80;99.90;;;;;;5053594;28;20025;-54
2022/01/23 15:50:34;;;;;;;1.52;0.98;;;7.80;99.90;;;;;;5035673;28;20021;-50
2022/01/23 15:53:00;;;;;;;2.85;1.27;;;7.70;99.90;;;;;;5053820;28;20032;-50
2022/01/23 15:55:28;;;;;;;3.70;1.73;;;7.70;99.90;;;;;;5035722;28;20021;-49
2022/01/23 15:57:57;;;;;;;3.10;1.58;;;7.70;99.90;;;;;;5053421;28;20021;-48
2022/01/23 16:00:23;;;;;;;2.20;1.33;;;7.70;99.90;;;;;;5035580;28;20021;-49
2022/01/23 16:02:49;;;;;;;4.40;2.42;;;7.60;99.90;;;;;;5035532;28;20028;-47
2022/01/23 16:05:16;;;;;;;7.32;3.08;;;7.60;99.90;;;;;;5035651;28;20120;-48
2022/01/23 16:07:42;;;;;;;7.43;4.20;;;7.60;99.90;;;;;;5053273;28;20180;-49
2022/01/23 16:10:08;;;;;;;4.57;2.53;;;7.60;99.90;;;;;;5053557;28;20067;-48
2022/01/23 16:12:35;;;;;;;4.00;1.50;;;7.60;99.90;;;;;;5035187;28;20021;-48
2022/01/23 16:15:01;;;;;;;2.45;1.48;;;7.40;99.90;;;;;;5035278;28;20024;-48
2022/01/23 16:17:27;;;;;;;2.30;1.77;;;7.50;99.90;;;;;;5035735;28;20040;-50
2022/01/23 16:19:58;;;;;;;1.77;1.38;;;7.50;99.90;;;;;;5036831;28;20079;-52
2022/01/23 16:22:24;;;;;;;3.05;1.42;;;7.60;99.90;;;;;;5037051;28;20032;-51
2022/01/23 16:24:50;;;;;;;14.15;4.75;;;7.50;99.90;;;;;;5054881;28;20028;-53
2022/01/23 16:27:15;;;;;;;2.80;1.55;;;7.60;99.90;;;;;;5053467;28;20028;-52
2022/01/23 16:29:42;;;;;;;2.97;1.52;;;7.50;99.90;;;;;;5035419;28;20024;-48
2022/01/23 16:32:08;;;;;;;3.83;1.55;;;7.50;99.90;;;;;;5053429;28;20025;-48
2022/01/23 16:34:36;;;;;;;6.18;1.50;;;7.50;99.90;;;;;;5053117;28;20028;-53